KBXA/BXA METAR and TAF weather

Enter ICAO airport designator
Station Type Date Time Source
KBXA METAR 2022/06/27 07:55 UTC NOAA

KBXA 270755Z AUTO 00000KT 10SM CLR 24/22 A3000 RMK AO2 T02400222


Station Type Date Time Source
KBXA Decoded METAR 2022/06/27 07:55 UTC NOAA

Bogalusa, George R Carr Memorial Air Field, LA, United States (KBXA) 30-48-49N 089-51-53W
Jun 27, 2022 - 03:55 AM EDT / 2022.06.27 0755 UTC
Wind: Calm:0
Visibility: 10 mile(s):0
Sky conditions: clear
Temperature: 75.2 F (24.0 C)
Dew Point: 72.0 F (22.2 C)
Relative Humidity: 89%
Pressure (altimeter): 30 in. Hg (1015 hPa)
ob: KBXA 270755Z AUTO 00000KT 10SM CLR 24/22 A3000 RMK AO2 T02400222
cycle: 8

Station Type Date Time Source
KBXA TAF UTC NOAA

Error!

Example: see airport list